createdAt,value
2022-11-20T00:00:38.908Z,10.27
2022-11-20T00:04:40.440Z,11.18
2022-11-20T00:08:42.740Z,10.55
2022-11-20T00:12:44.265Z,10.73
2022-11-20T00:16:45.733Z,11.27
2022-11-20T00:20:49.275Z,11.10
2022-11-20T00:24:50.955Z,10.32
2022-11-20T00:28:55.043Z,10.70
2022-11-20T00:32:58.750Z,10.95
2022-11-20T00:37:00.353Z,10.95
2022-11-20T00:41:07.442Z,10.25
2022-11-20T00:45:10.504Z,8.77
2022-11-20T00:49:12.019Z,11.05
2022-11-20T00:53:13.594Z,9.68
2022-11-20T00:57:15.364Z,9.05
2022-11-20T01:01:25.614Z,8.38
2022-11-20T01:05:30.086Z,8.88
2022-11-20T01:09:33.922Z,9.13
2022-11-20T01:13:40.331Z,9.55
2022-11-20T01:17:41.945Z,9.43
2022-11-20T01:21:45.578Z,9.52
2022-11-20T01:25:47.163Z,8.70
2022-11-20T01:29:48.652Z,9.38
2022-11-20T01:33:52.875Z,7.90
2022-11-20T01:37:54.487Z,9.35
2022-11-20T01:42:15.211Z,8.63
2022-11-20T01:46:19.228Z,7.63
2022-11-20T01:50:25.806Z,8.63
2022-11-20T01:54:38.609Z,8.82
2022-11-20T01:58:45.075Z,8.93
2022-11-20T02:02:52.489Z,8.93
2022-11-20T02:07:03.230Z,8.50
2022-11-20T02:11:07.466Z,9.60
2022-11-20T02:15:09.469Z,8.65
2022-11-20T02:19:23.517Z,8.85
2022-11-20T02:23:25.002Z,8.15
2022-11-20T02:27:27.441Z,8.57
2022-11-20T02:31:28.941Z,8.65
2022-11-20T02:35:30.533Z,7.85
2022-11-20T02:39:32.163Z,8.77
2022-11-20T02:43:33.836Z,8.35
2022-11-20T02:47:35.319Z,8.30
2022-11-20T02:51:36.902Z,8.00
2022-11-20T02:55:38.554Z,7.50
2022-11-20T02:59:40.068Z,7.75
2022-11-20T03:03:41.631Z,8.38
2022-11-20T03:07:44.853Z,8.85
2022-11-20T03:11:46.401Z,9.50
2022-11-20T03:15:48.210Z,8.60
2022-11-20T03:19:49.820Z,8.57
2022-11-20T03:23:51.449Z,8.90
2022-11-20T03:27:52.917Z,9.13
2022-11-20T03:31:54.554Z,7.93
2022-11-20T03:35:56.082Z,8.63
2022-11-20T03:39:57.598Z,8.05
2022-11-20T03:44:01.962Z,8.50
2022-11-20T03:48:03.910Z,8.18
2022-11-20T03:52:05.381Z,6.68
2022-11-20T03:56:08.183Z,6.90
2022-11-20T04:00:10.639Z,7.28
2022-11-20T04:04:12.186Z,7.40
2022-11-20T04:08:13.698Z,6.68
2022-11-20T04:12:15.425Z,7.15
2022-11-20T04:16:17.637Z,7.00
2022-11-20T04:20:19.307Z,7.75
2022-11-20T04:24:21.008Z,6.53
2022-11-20T04:28:22.576Z,7.63
2022-11-20T04:32:24.065Z,7.68
2022-11-20T04:36:27.263Z,7.30
2022-11-20T04:40:29.305Z,7.10
2022-11-20T04:44:30.799Z,8.13
2022-11-20T04:48:32.287Z,7.65
2022-11-20T04:52:33.752Z,8.20
2022-11-20T04:56:35.263Z,6.65
2022-11-20T05:00:36.947Z,7.45
2022-11-20T05:04:38.603Z,7.47
2022-11-20T05:08:40.469Z,7.40
2022-11-20T05:12:42.681Z,7.35
2022-11-20T05:16:44.373Z,7.68
2022-11-20T05:20:45.883Z,8.65
2022-11-20T05:24:47.549Z,8.32
2022-11-20T05:28:49.908Z,8.05
2022-11-20T05:32:51.370Z,7.63
2022-11-20T05:36:52.770Z,7.38
2022-11-20T05:40:54.350Z,6.03
2022-11-20T05:44:55.844Z,6.88
2022-11-20T05:48:58.879Z,7.90
2022-11-20T05:53:01.486Z,6.85
2022-11-20T05:57:03.209Z,7.07
2022-11-20T06:01:25.818Z,7.43
2022-11-20T06:05:27.387Z,7.45
2022-11-20T06:09:29.118Z,6.57
2022-11-20T06:13:30.639Z,6.47
2022-11-20T06:17:32.259Z,6.88
2022-11-20T06:21:33.770Z,6.47
2022-11-20T06:25:39.474Z,6.63
2022-11-20T06:29:41.453Z,6.93
2022-11-20T06:33:43.928Z,6.03
2022-11-20T06:37:45.552Z,6.35
2022-11-20T06:41:47.234Z,6.13
2022-11-20T06:45:59.336Z,6.93
2022-11-20T06:50:01.003Z,6.15
2022-11-20T06:54:02.969Z,7.47
2022-11-20T06:58:07.387Z,6.82
2022-11-20T07:02:13.116Z,6.65
2022-11-20T07:06:18.134Z,7.22
2022-11-20T07:10:20.892Z,7.82
2022-11-20T07:14:22.525Z,8.48
2022-11-20T07:18:24.328Z,7.65
2022-11-20T07:22:26.069Z,8.40
2022-11-20T07:26:27.848Z,8.23
2022-11-20T07:30:29.611Z,8.63
2022-11-20T07:34:32.543Z,10.77
2022-11-20T07:38:34.284Z,10.85
2022-11-20T07:42:35.873Z,10.70
2022-11-20T07:46:37.439Z,10.80
2022-11-20T07:50:39.050Z,11.20
2022-11-20T07:54:40.687Z,11.52
2022-11-20T07:58:42.265Z,11.05
2022-11-20T08:02:44.087Z,11.15
2022-11-20T08:06:45.651Z,12.15
2022-11-20T08:10:47.283Z,12.52
2022-11-20T08:14:48.965Z,12.15
2022-11-20T08:18:50.536Z,12.63
2022-11-20T08:22:52.061Z,12.20
2022-11-20T08:26:54.024Z,12.70
2022-11-20T08:31:03.938Z,13.43
2022-11-20T08:35:05.830Z,12.65
2022-11-20T08:39:07.432Z,12.75
2022-11-20T08:43:09.017Z,12.75
2022-11-20T08:47:10.722Z,14.68
2022-11-20T08:51:13.065Z,14.18
2022-11-20T08:55:14.826Z,14.90
2022-11-20T08:59:44.007Z,13.88
2022-11-20T09:03:38.203Z,13.32
2022-11-20T09:07:42.643Z,13.25
2022-11-20T09:11:44.354Z,13.20
2022-11-20T09:15:45.945Z,14.07
2022-11-20T09:19:47.916Z,13.18
2022-11-20T09:23:49.528Z,12.60
2022-11-20T09:27:58.463Z,12.25
2022-11-20T09:32:00.158Z,12.25
2022-11-20T09:36:01.785Z,11.52
2022-11-20T09:40:04.091Z,12.88
2022-11-20T09:44:25.770Z,11.73
2022-11-20T09:49:04.931Z,12.73
2022-11-20T09:53:31.780Z,12.15
2022-11-20T09:57:37.696Z,13.35
2022-11-20T10:01:41.692Z,9.85
2022-11-20T10:05:50.705Z,10.90
2022-11-20T10:09:57.264Z,10.88
2022-11-20T10:14:16.116Z,10.57
2022-11-20T10:18:23.823Z,10.95
2022-11-20T10:22:52.519Z,11.23
2022-11-20T10:27:17.134Z,10.70
2022-11-20T10:31:30.146Z,9.60
2022-11-20T10:35:44.215Z,9.68
2022-11-20T10:40:06.938Z,9.18
2022-11-20T10:44:41.605Z,9.27
2022-11-20T10:48:45.727Z,9.32
2022-11-20T10:53:00.143Z,8.82
2022-11-20T10:57:16.685Z,8.77
2022-11-20T11:01:22.552Z,9.90
2022-11-20T11:05:37.170Z,7.80
2022-11-20T11:09:47.730Z,9.25
2022-11-20T11:13:49.875Z,8.50
2022-11-20T11:17:54.655Z,9.35
2022-11-20T11:21:58.099Z,8.68
2022-11-20T11:26:01.334Z,9.35
2022-11-20T11:30:15.131Z,8.15
2022-11-20T11:34:18.398Z,7.82
2022-11-20T11:38:28.733Z,7.30
2022-11-20T11:42:31.188Z,8.27
2022-11-20T11:46:38.589Z,6.80
2022-11-20T11:50:49.986Z,6.90
2022-11-20T11:54:58.447Z,5.60
2022-11-20T11:59:05.703Z,5.22
2022-11-20T12:03:22.542Z,4.93
2022-11-20T12:07:47.402Z,6.00
2022-11-20T12:11:56.163Z,5.20
2022-11-20T12:15:57.796Z,5.00
2022-11-20T12:19:59.527Z,4.93
2022-11-20T12:24:31.631Z,5.28
2022-11-20T12:28:38.083Z,6.00
2022-11-20T12:32:51.893Z,5.65
2022-11-20T12:37:09.821Z,6.90
2022-11-20T12:41:49.017Z,5.50
2022-11-20T12:46:09.463Z,5.90
2022-11-20T12:50:53.408Z,5.93
2022-11-20T12:55:21.777Z,6.00
2022-11-20T12:59:51.352Z,5.47
2022-11-20T13:03:57.119Z,5.93
2022-11-20T13:07:59.420Z,5.10
2022-11-20T13:12:12.730Z,6.07
2022-11-20T13:16:21.194Z,6.13
2022-11-20T13:20:23.093Z,5.75
2022-11-20T13:24:28.685Z,5.97
2022-11-20T13:28:31.381Z,5.88
2022-11-20T13:32:33.395Z,6.60
2022-11-20T13:36:37.463Z,8.00
2022-11-20T13:40:59.332Z,6.10
2022-11-20T13:45:21.730Z,4.80
2022-11-20T13:49:45.152Z,5.00
2022-11-20T13:53:53.223Z,5.15
2022-11-20T13:58:32.804Z,4.70
2022-11-20T14:02:34.413Z,6.55
2022-11-20T14:06:48.077Z,4.75
2022-11-20T14:10:49.700Z,4.45
2022-11-20T14:14:55.246Z,6.05
2022-11-20T14:18:58.928Z,5.57
2022-11-20T14:23:00.491Z,5.78
2022-11-20T14:27:04.859Z,5.78
2022-11-20T14:31:19.770Z,5.35
2022-11-20T14:35:28.820Z,5.13
2022-11-20T14:39:34.386Z,5.53
2022-11-20T14:43:38.590Z,4.75
2022-11-20T14:47:41.740Z,5.63
2022-11-20T14:51:43.597Z,5.55
2022-11-20T14:55:45.440Z,5.05
2022-11-20T14:59:48.385Z,5.40
2022-11-20T15:04:01.138Z,6.82
2022-11-20T15:12:19.730Z,5.72
2022-11-20T15:16:23.202Z,5.80
2022-11-20T15:20:31.195Z,5.97
2022-11-20T15:24:33.062Z,6.05
2022-11-20T15:28:40.280Z,5.57
2022-11-20T15:32:43.028Z,5.72
2022-11-20T15:36:44.974Z,7.00
2022-11-20T15:40:46.816Z,7.15
2022-11-20T15:44:48.396Z,7.20
2022-11-20T15:48:55.355Z,6.45
2022-11-20T15:52:56.942Z,6.32
2022-11-20T15:56:59.309Z,6.30
2022-11-20T16:01:00.935Z,7.13
2022-11-20T16:05:02.561Z,6.90
2022-11-20T16:09:04.749Z,7.53
2022-11-20T16:13:34.067Z,8.05
2022-11-20T16:17:44.731Z,7.10
2022-11-20T16:21:46.519Z,7.68
2022-11-20T16:25:48.733Z,6.63
2022-11-20T16:29:50.324Z,7.45
2022-11-20T16:33:58.975Z,7.38
2022-11-20T16:38:00.718Z,7.18
2022-11-20T16:42:04.727Z,7.38
2022-11-20T16:46:06.320Z,7.55
2022-11-20T16:50:12.918Z,7.95
2022-11-20T16:54:19.454Z,8.10
2022-11-20T16:58:22.700Z,7.40
2022-11-20T17:02:24.411Z,7.80
2022-11-20T17:06:33.274Z,8.50
2022-11-20T17:10:35.359Z,8.85
2022-11-20T17:14:39.741Z,7.63
2022-11-20T17:18:41.548Z,8.45
2022-11-20T17:22:43.256Z,8.95
2022-11-20T17:26:45.951Z,8.77
2022-11-20T17:30:50.449Z,8.48
2022-11-20T17:34:54.570Z,9.70
2022-11-20T17:38:59.674Z,9.13
2022-11-20T17:43:01.329Z,11.57
2022-11-20T17:47:02.887Z,10.07
2022-11-20T17:51:06.460Z,11.10
2022-11-20T17:55:08.473Z,10.73
2022-11-20T17:59:12.108Z,10.95
2022-11-20T18:03:13.794Z,11.27
2022-11-20T18:07:15.416Z,10.50
2022-11-20T18:11:23.687Z,10.73
2022-11-20T18:15:25.445Z,9.80
2022-11-20T18:19:41.207Z,10.15
2022-11-20T18:23:50.463Z,11.90
2022-11-20T18:27:58.978Z,11.80
2022-11-20T18:32:03.173Z,10.82
2022-11-20T18:36:39.118Z,10.90
2022-11-20T18:40:40.690Z,11.55
2022-11-20T18:44:51.581Z,10.15
2022-11-20T18:48:53.745Z,10.98
2022-11-20T18:53:32.865Z,12.15
2022-11-20T18:57:46.911Z,10.82
2022-11-20T19:01:55.614Z,11.40
2022-11-20T19:06:02.936Z,12.30
2022-11-20T19:10:06.036Z,11.75
2022-11-20T19:14:10.168Z,11.20
2022-11-20T19:18:43.952Z,12.88
2022-11-20T19:22:50.529Z,12.30
2022-11-20T19:31:38.218Z,11.65
2022-11-20T19:35:40.084Z,12.63
2022-11-20T19:39:42.205Z,12.35
2022-11-20T19:43:45.307Z,14.93
2022-11-20T19:48:06.724Z,14.43
2022-11-20T19:52:19.089Z,16.83
2022-11-20T19:56:25.799Z,15.15
2022-11-20T20:06:34.292Z,14.50
2022-11-20T20:11:11.027Z,15.68
2022-11-20T20:29:55.781Z,13.57
2022-11-20T20:34:31.992Z,12.43
2022-11-20T20:38:38.078Z,11.27
2022-11-20T20:43:08.289Z,11.68
2022-11-20T20:48:13.233Z,12.38
2022-11-20T20:52:34.447Z,10.32
2022-11-20T20:57:06.658Z,11.90
2022-11-20T21:01:13.093Z,10.55
2022-11-20T21:05:17.697Z,10.75
2022-11-20T21:11:56.773Z,10.65
2022-11-20T21:21:53.188Z,10.48
2022-11-20T21:26:45.349Z,11.32
2022-11-20T21:30:47.775Z,11.18
2022-11-20T21:34:56.982Z,11.77
2022-11-20T21:39:02.150Z,11.88
2022-11-20T21:43:03.604Z,11.55
2022-11-20T21:47:06.302Z,11.80
2022-11-20T21:51:10.169Z,12.07
2022-11-20T21:55:11.799Z,11.25
2022-11-20T21:59:13.920Z,11.82
2022-11-20T22:03:15.786Z,10.63
2022-11-20T22:07:17.334Z,11.85
2022-11-20T22:11:21.092Z,12.93
2022-11-20T22:15:53.249Z,11.60
2022-11-20T22:19:45.586Z,10.50
2022-11-20T22:23:47.511Z,11.50
2022-11-20T22:27:49.189Z,11.35
2022-11-20T22:31:52.066Z,10.48
2022-11-20T22:35:59.504Z,11.15
2022-11-20T22:40:01.010Z,12.75
2022-11-20T22:44:05.416Z,12.63
2022-11-20T22:48:08.876Z,11.88
2022-11-20T22:52:14.976Z,11.30
2022-11-20T22:56:19.695Z,14.18
2022-11-20T23:00:21.404Z,12.40
2022-11-20T23:04:23.564Z,13.63
2022-11-20T23:08:28.744Z,15.43
2022-11-20T23:12:30.266Z,14.07
2022-11-20T23:16:35.270Z,14.88
2022-11-20T23:20:36.805Z,14.00
2022-11-20T23:24:38.505Z,15.93
2022-11-20T23:28:43.282Z,15.55
2022-11-20T23:32:47.236Z,15.23
2022-11-20T23:36:48.706Z,15.55
2022-11-20T23:40:52.026Z,14.68
2022-11-20T23:44:57.935Z,14.73
2022-11-20T23:49:04.834Z,17.75
2022-11-20T23:53:06.562Z,14.82
2022-11-20T23:57:08.137Z,16.00
